Weather at Blythe Airport

Public forecast

Using degrees Fahrenheit for public forecast. Weather courtesy of forecast.io.

Current aviation weather report (METAR) for Blythe Airport

Retrieved 2021/05/11 02:52 UTC (15 minutes ago):

KBLH 110252Z AUTO 18008KT 10SM CLR 31/M01 A2970 RMK AO2 SLP052 T03111006 53003

Aviation forecast (TAF) for Blythe Airport

Retrieved 2021-05-11 00:42 UTC (2 hours ago):

TAF KBLH 102340Z 1100/1124 18010KT P6SM SKC FM111000 VRB05KT P6SM SKC FM112000 18005KT P6SM SKC